createdAt,value
2018-12-20T04:01:09.588Z,6.38
2018-12-20T04:02:10.032Z,6.31
2018-12-20T04:03:09.893Z,6.38
2018-12-20T04:04:09.919Z,6.41
2018-12-20T04:05:10.212Z,6.48
2018-12-20T04:06:10.283Z,6.52
2018-12-20T04:07:10.437Z,6.49
2018-12-20T04:08:10.632Z,6.48
2018-12-20T04:09:10.845Z,6.45
2018-12-20T04:10:11.001Z,6.46
2018-12-20T04:11:11.081Z,6.44
2018-12-20T04:12:11.229Z,6.46
2018-12-20T04:13:11.553Z,6.45
2018-12-20T04:14:11.633Z,6.48
2018-12-20T04:15:11.900Z,6.48
2018-12-20T04:16:11.955Z,6.51
2018-12-20T04:17:12.277Z,6.45
2018-12-20T04:18:12.492Z,6.49
2018-12-20T04:19:12.458Z,6.46
2018-12-20T04:20:12.730Z,6.49
2018-12-20T04:21:12.788Z,6.52
2018-12-20T04:22:12.849Z,6.56
2018-12-20T04:23:13.046Z,6.48
2018-12-20T04:24:13.157Z,6.48
2018-12-20T04:25:13.283Z,6.57
2018-12-20T04:26:13.676Z,6.49
2018-12-20T04:27:13.735Z,6.64
2018-12-20T04:28:14.263Z,6.60
2018-12-20T04:29:14.154Z,6.64
2018-12-20T04:30:14.350Z,6.59
2018-12-20T04:31:14.372Z,6.56
2018-12-20T04:32:14.586Z,6.49
2018-12-20T04:33:14.707Z,6.70
2018-12-20T04:34:15.048Z,6.64
2018-12-20T04:35:14.919Z,6.62
2018-12-20T04:36:15.239Z,6.63
2018-12-20T04:37:15.510Z,6.60
2018-12-20T04:38:15.390Z,6.60
2018-12-20T04:39:15.602Z,6.66
2018-12-20T04:40:16.013Z,6.60
2018-12-20T04:41:16.231Z,6.64
2018-12-20T04:42:16.053Z,6.69
2018-12-20T04:43:16.212Z,6.63
2018-12-20T04:44:16.487Z,6.64
2018-12-20T04:45:16.833Z,6.64
2018-12-20T04:46:16.819Z,6.67
2018-12-20T04:47:16.879Z,6.66
2018-12-20T04:48:16.981Z,6.62
2018-12-20T04:49:17.160Z,6.60
2018-12-20T04:50:17.325Z,6.60
2018-12-20T04:51:17.868Z,6.60
2018-12-20T04:52:17.761Z,6.74
2018-12-20T04:53:17.901Z,6.64
2018-12-20T04:54:18.101Z,6.66
2018-12-20T04:55:18.301Z,6.63
2018-12-20T04:56:18.343Z,6.60
2018-12-20T04:57:18.530Z,6.63
2018-12-20T04:58:18.863Z,6.77
2018-12-20T04:59:18.750Z,6.75
2018-12-20T05:00:19.243Z,6.67
2018-12-20T05:01:19.101Z,6.72
2018-12-20T05:02:19.451Z,6.85
2018-12-20T05:03:19.386Z,6.77
2018-12-20T05:04:19.595Z,6.70
2018-12-20T05:05:19.778Z,6.79
2018-12-20T05:06:19.916Z,6.74
2018-12-20T05:07:20.303Z,6.75
2018-12-20T05:08:20.272Z,6.82
2018-12-20T05:09:20.304Z,6.84
2018-12-20T05:10:20.673Z,6.82
2018-12-20T05:11:20.831Z,6.78
2018-12-20T05:12:20.837Z,6.79
2018-12-20T05:13:21.044Z,6.84
2018-12-20T05:14:21.157Z,6.84
2018-12-20T05:15:21.415Z,6.89
2018-12-20T05:16:21.479Z,6.88
2018-12-20T05:17:21.611Z,6.96
2018-12-20T05:18:21.802Z,7.00
2018-12-20T05:19:22.243Z,6.99
2018-12-20T05:20:22.185Z,6.95
2018-12-20T05:21:22.374Z,7.06
2018-12-20T05:22:22.627Z,7.02
2018-12-20T05:23:22.641Z,6.99
2018-12-20T05:24:22.822Z,7.10
2018-12-20T05:25:22.937Z,7.07
2018-12-20T05:26:23.136Z,7.07
2018-12-20T05:27:23.233Z,7.00
2018-12-20T05:28:23.450Z,7.02
2018-12-20T05:29:23.615Z,7.17
2018-12-20T05:30:23.731Z,7.11
2018-12-20T05:31:23.821Z,7.20
2018-12-20T05:32:24.157Z,7.14
2018-12-20T05:33:24.451Z,7.17
2018-12-20T05:34:24.467Z,7.17
2018-12-20T05:35:24.617Z,7.23
2018-12-20T05:36:24.862Z,7.23
2018-12-20T05:37:37.122Z,7.20
2018-12-20T05:38:27.547Z,7.23
2018-12-20T05:41:28.019Z,7.24
2018-12-20T05:42:27.492Z,7.28
2018-12-20T05:43:27.727Z,7.25
2018-12-20T05:44:27.830Z,7.32
2018-12-20T05:45:27.855Z,7.33
2018-12-20T05:46:28.099Z,7.29
2018-12-20T05:47:28.327Z,7.25
2018-12-20T05:48:28.613Z,7.28
2018-12-20T05:49:28.531Z,7.32
2018-12-20T05:50:28.657Z,7.25
2018-12-20T05:51:28.725Z,7.39
2018-12-20T05:52:28.958Z,7.38
2018-12-20T05:53:30.257Z,7.43
2018-12-20T05:54:29.348Z,7.28
2018-12-20T05:55:29.543Z,7.31
2018-12-20T05:56:29.575Z,7.29
2018-12-20T05:57:29.900Z,7.31
2018-12-20T05:58:30.027Z,7.35
2018-12-20T05:59:30.179Z,7.28
2018-12-20T06:00:30.181Z,7.29
2018-12-20T06:01:30.414Z,7.23
2018-12-20T06:02:30.491Z,7.25
2018-12-20T06:03:30.655Z,7.25
2018-12-20T06:04:30.887Z,7.23
2018-12-20T06:05:31.046Z,7.18
2018-12-20T06:06:31.126Z,7.23
2018-12-20T06:07:31.361Z,7.24
2018-12-20T06:08:31.498Z,7.23
2018-12-20T06:09:31.612Z,7.23
2018-12-20T06:10:31.818Z,7.28
2018-12-20T06:11:31.971Z,7.32
2018-12-20T06:12:32.147Z,7.28
2018-12-20T06:13:32.405Z,7.28
2018-12-20T06:14:32.535Z,7.21
2018-12-20T06:15:32.620Z,7.25
2018-12-20T06:16:32.744Z,7.20
2018-12-20T06:17:33.313Z,7.28
2018-12-20T06:18:33.248Z,7.35
2018-12-20T06:19:33.498Z,7.23
2018-12-20T06:20:33.472Z,7.25
2018-12-20T06:21:33.568Z,7.20
2018-12-20T06:22:33.758Z,7.23
2018-12-20T06:23:33.861Z,7.28
2018-12-20T06:24:34.052Z,7.25
2018-12-20T06:25:34.270Z,7.20
2018-12-20T06:26:34.394Z,7.23
2018-12-20T06:27:34.552Z,7.18
2018-12-20T06:28:34.651Z,7.25
2018-12-20T06:29:34.822Z,7.23
2018-12-20T06:30:35.041Z,7.17
2018-12-20T06:31:35.532Z,7.24
2018-12-20T06:32:35.337Z,7.23
2018-12-20T06:33:35.475Z,7.24
2018-12-20T06:34:35.618Z,7.29
2018-12-20T06:35:35.793Z,7.28
2018-12-20T06:36:35.901Z,7.24
2018-12-20T06:37:36.077Z,7.29
2018-12-20T06:38:36.357Z,7.29
2018-12-20T06:39:36.406Z,7.28
2018-12-20T06:40:36.584Z,7.20
2018-12-20T06:41:36.729Z,7.18
2018-12-20T06:42:36.841Z,7.29
2018-12-20T06:43:37.196Z,7.32
2018-12-20T06:44:37.178Z,7.25
2018-12-20T06:45:37.367Z,7.28
2018-12-20T06:46:37.446Z,7.31
2018-12-20T06:47:37.601Z,7.33
2018-12-20T06:48:37.865Z,7.35
2018-12-20T06:49:38.011Z,7.50
2018-12-20T06:50:38.186Z,7.42
2018-12-20T06:51:38.350Z,7.43
2018-12-20T06:52:38.669Z,7.45
2018-12-20T06:53:38.709Z,7.56
2018-12-20T06:54:38.893Z,7.39
2018-12-20T06:55:39.089Z,7.38
2018-12-20T06:56:39.265Z,7.48
2018-12-20T06:57:39.409Z,7.43
2018-12-20T06:58:39.620Z,7.50
2018-12-20T06:59:39.816Z,7.51
2018-12-20T07:00:39.923Z,7.53
2018-12-20T07:01:40.086Z,7.54
2018-12-20T07:02:40.200Z,7.53
2018-12-20T07:03:40.431Z,7.61
2018-12-20T07:04:40.613Z,7.61
2018-12-20T07:05:40.732Z,7.58
2018-12-20T07:06:40.948Z,7.56
2018-12-20T07:07:41.082Z,7.56
2018-12-20T07:08:41.219Z,7.63
2018-12-20T07:09:41.377Z,7.60
2018-12-20T07:10:41.553Z,7.57
2018-12-20T07:11:41.697Z,7.61
2018-12-20T07:12:41.791Z,7.63
2018-12-20T07:13:41.968Z,7.61
2018-12-20T07:14:42.167Z,7.61
2018-12-20T07:15:42.367Z,7.67
2018-12-20T07:16:42.536Z,7.69
2018-12-20T07:17:42.675Z,7.73
2018-12-20T07:18:42.827Z,7.70
2018-12-20T07:19:42.929Z,7.66
2018-12-20T07:20:43.112Z,7.73
2018-12-20T07:21:43.233Z,7.77
2018-12-20T07:22:43.427Z,7.76
2018-12-20T07:23:43.555Z,7.79
2018-12-20T07:24:43.741Z,7.75
2018-12-20T07:25:43.872Z,7.69
2018-12-20T07:26:44.099Z,7.67
2018-12-20T07:27:44.197Z,7.63
2018-12-20T07:28:44.364Z,7.61
2018-12-20T07:29:44.506Z,7.57
2018-12-20T07:30:44.728Z,7.54
2018-12-20T07:31:44.825Z,7.48
2018-12-20T07:32:45.036Z,7.60
2018-12-20T07:33:45.173Z,7.54
2018-12-20T07:34:47.998Z,7.56
2018-12-20T07:35:45.489Z,7.50
2018-12-20T07:36:45.738Z,7.54
2018-12-20T07:37:45.803Z,7.57
2018-12-20T07:38:46.053Z,7.66
2018-12-20T07:39:46.745Z,7.66
2018-12-20T07:40:46.869Z,7.56
2018-12-20T07:41:47.348Z,7.53
2018-12-20T07:42:46.795Z,7.58
2018-12-20T07:43:46.899Z,7.50
2018-12-20T07:44:47.785Z,7.56
2018-12-20T07:45:47.171Z,7.60
2018-12-20T07:46:47.405Z,7.58
2018-12-20T07:47:47.542Z,7.67
2018-12-20T07:48:47.747Z,7.61
2018-12-20T07:49:47.839Z,7.53
2018-12-20T07:50:48.133Z,7.48
2018-12-20T07:51:48.292Z,7.31
2018-12-20T07:52:48.416Z,7.35
2018-12-20T07:53:48.645Z,7.40
2018-12-20T07:54:49.011Z,7.38
2018-12-20T07:55:48.936Z,7.38
2018-12-20T07:56:49.133Z,7.56
2018-12-20T07:57:49.276Z,7.50
2018-12-20T07:58:49.424Z,7.56
2018-12-20T07:59:49.618Z,7.48
2018-12-20T08:00:49.802Z,7.48
2018-12-20T08:01:50.174Z,7.48
2018-12-20T08:02:50.326Z,7.57
2018-12-20T08:03:50.360Z,7.47
2018-12-20T08:04:50.457Z,7.51
2018-12-20T08:05:51.378Z,7.38
2018-12-20T08:06:50.791Z,7.39
2018-12-20T08:07:50.976Z,7.39
2018-12-20T08:08:51.118Z,7.48
2018-12-20T08:09:51.323Z,7.53
2018-12-20T08:10:51.474Z,7.48
2018-12-20T08:11:51.552Z,7.56
2018-12-20T08:12:51.735Z,7.53
2018-12-20T08:13:51.891Z,7.53
2018-12-20T08:14:52.089Z,7.53
2018-12-20T08:15:52.213Z,7.42
2018-12-20T08:16:52.356Z,7.50
2018-12-20T08:17:52.519Z,7.56
2018-12-20T08:18:52.691Z,7.53
2018-12-20T08:19:52.793Z,7.57
2018-12-20T08:20:52.972Z,7.57
2018-12-20T08:21:53.169Z,7.63
2018-12-20T08:22:53.359Z,7.60
2018-12-20T08:23:53.512Z,7.70
2018-12-20T08:24:53.688Z,7.72
2018-12-20T08:25:53.799Z,7.75
2018-12-20T08:26:53.981Z,7.66
2018-12-20T08:27:54.114Z,7.66
2018-12-20T08:28:54.265Z,7.79
2018-12-20T08:29:54.418Z,7.70
2018-12-20T08:30:54.571Z,7.73
2018-12-20T08:31:54.744Z,7.73
2018-12-20T08:32:54.910Z,7.75
2018-12-20T08:33:55.020Z,7.76
2018-12-20T08:34:55.253Z,7.82
2018-12-20T08:35:55.412Z,7.75
2018-12-20T08:36:55.516Z,7.79
2018-12-20T08:37:55.668Z,7.87
2018-12-20T08:38:55.846Z,7.76
2018-12-20T08:39:55.972Z,7.66
2018-12-20T08:40:56.148Z,7.70
2018-12-20T08:41:56.369Z,7.63
2018-12-20T08:42:56.562Z,7.69
2018-12-20T08:43:56.655Z,7.73
2018-12-20T08:44:56.836Z,7.75
2018-12-20T08:45:57.039Z,7.61
2018-12-20T08:46:57.260Z,7.73
2018-12-20T08:47:57.396Z,7.77
2018-12-20T08:48:57.509Z,7.88
2018-12-20T08:49:57.634Z,7.94
2018-12-20T08:50:57.854Z,7.94
2018-12-20T08:51:57.947Z,7.87
2018-12-20T08:52:58.107Z,7.77
2018-12-20T08:53:58.320Z,7.90
2018-12-20T08:54:58.428Z,7.94
2018-12-20T08:55:58.602Z,7.80
2018-12-20T08:56:58.727Z,7.82
2018-12-20T08:57:58.947Z,7.90
2018-12-20T08:58:59.069Z,7.90
2018-12-20T08:59:59.288Z,7.79
2018-12-20T09:00:59.395Z,7.82
2018-12-20T09:01:59.697Z,7.93
2018-12-20T09:02:59.810Z,7.87
2018-12-20T09:03:59.972Z,7.95
2018-12-20T09:05:00.097Z,7.88
2018-12-20T09:06:00.248Z,8.03
2018-12-20T09:07:00.477Z,7.91
2018-12-20T09:08:00.638Z,7.91
2018-12-20T09:09:00.768Z,7.80
2018-12-20T09:10:00.951Z,7.93
2018-12-20T09:11:01.196Z,7.87
2018-12-20T09:12:01.370Z,7.98
2018-12-20T09:13:09.365Z,7.85
2018-12-20T09:14:01.723Z,7.93
2018-12-20T09:15:01.805Z,7.87
2018-12-20T09:16:01.963Z,7.91
2018-12-20T09:17:03.137Z,7.90
2018-12-20T09:18:02.290Z,7.90
2018-12-20T09:19:02.398Z,7.85
2018-12-20T09:20:02.667Z,7.93
2018-12-20T09:21:02.774Z,7.80
2018-12-20T09:22:02.931Z,7.83
2018-12-20T09:23:03.160Z,7.82
2018-12-20T09:24:03.336Z,7.90
2018-12-20T09:25:03.426Z,7.75
2018-12-20T09:26:03.631Z,7.91
2018-12-20T09:27:03.778Z,7.85
2018-12-20T09:28:03.867Z,7.73
2018-12-20T09:29:04.054Z,7.76
2018-12-20T09:30:04.195Z,7.72
2018-12-20T09:31:04.387Z,7.67
2018-12-20T09:32:04.508Z,7.69
2018-12-20T09:33:04.669Z,7.66
2018-12-20T09:34:04.833Z,7.69
2018-12-20T09:35:05.004Z,7.79
2018-12-20T09:36:05.107Z,7.76
2018-12-20T09:37:05.389Z,7.72
2018-12-20T09:38:05.511Z,7.75
2018-12-20T09:39:05.602Z,7.79
2018-12-20T09:40:05.891Z,7.82
2018-12-20T09:41:06.163Z,7.77
2018-12-20T09:42:06.191Z,7.94
2018-12-20T09:43:06.351Z,7.85
2018-12-20T09:44:06.436Z,7.95
2018-12-20T09:45:06.610Z,7.94
2018-12-20T09:46:07.243Z,8.00
2018-12-20T09:47:11.579Z,7.91
2018-12-20T09:48:07.178Z,8.00
2018-12-20T09:49:07.877Z,7.98
2018-12-20T09:50:07.478Z,7.98
2018-12-20T09:51:07.621Z,8.05
2018-12-20T09:52:07.879Z,8.03
2018-12-20T09:53:08.110Z,8.08
2018-12-20T09:54:08.125Z,8.03
2018-12-20T09:55:08.324Z,8.06
2018-12-20T09:56:08.475Z,8.09
2018-12-20T09:57:08.645Z,8.05
2018-12-20T09:58:08.812Z,8.05
2018-12-20T09:59:08.959Z,8.01
2018-12-20T10:00:09.116Z,8.01
2018-12-20T10:01:09.240Z,7.75
2018-12-20T10:02:09.404Z,7.76
2018-12-20T10:03:10.421Z,7.73
2018-12-20T10:04:09.832Z,7.80
2018-12-20T10:05:09.974Z,7.82
2018-12-20T10:06:10.123Z,7.95
2018-12-20T10:07:10.266Z,7.83
2018-12-20T10:08:10.444Z,7.91
2018-12-20T10:09:10.663Z,7.95
2018-12-20T10:10:10.936Z,8.09
2018-12-20T10:11:10.977Z,8.19
2018-12-20T10:12:11.078Z,8.18
2018-12-20T10:13:11.234Z,8.18
2018-12-20T10:14:11.375Z,8.26
2018-12-20T10:15:11.600Z,8.18
2018-12-20T10:16:11.721Z,8.09
2018-12-20T10:17:19.682Z,8.18
2018-12-20T10:18:12.065Z,8.23
2018-12-20T10:19:12.160Z,8.31
2018-12-20T10:20:12.392Z,8.24
2018-12-20T10:21:12.594Z,8.33
2018-12-20T10:22:12.741Z,8.42
2018-12-20T10:23:12.826Z,8.45
2018-12-20T10:24:13.085Z,8.48
2018-12-20T10:25:13.215Z,8.56
2018-12-20T10:26:13.426Z,8.53
2018-12-20T10:27:13.532Z,8.55
2018-12-20T10:28:14.206Z,8.56
2018-12-20T10:29:13.851Z,8.55
2018-12-20T10:30:14.019Z,8.52
2018-12-20T10:31:14.220Z,8.46
2018-12-20T10:32:14.361Z,8.53
2018-12-20T10:33:14.527Z,8.52
2018-12-20T10:34:14.704Z,8.45
2018-12-20T10:35:14.853Z,8.56
2018-12-20T10:36:14.992Z,8.60
2018-12-20T10:37:15.167Z,8.64
2018-12-20T10:38:15.319Z,8.55
2018-12-20T10:39:15.487Z,8.60
2018-12-20T10:40:15.635Z,8.71
2018-12-20T10:41:15.803Z,8.76
2018-12-20T10:42:15.964Z,8.74
2018-12-20T10:43:16.129Z,8.78
2018-12-20T10:44:16.325Z,8.85
2018-12-20T10:45:16.443Z,8.87
2018-12-20T10:46:16.587Z,8.81
2018-12-20T10:47:16.757Z,8.84
2018-12-20T10:48:16.920Z,8.89
2018-12-20T10:49:17.112Z,8.88
2018-12-20T10:50:17.246Z,8.76
2018-12-20T10:51:17.397Z,8.92
2018-12-20T10:52:19.413Z,8.89
2018-12-20T10:53:17.795Z,8.82
2018-12-20T10:54:17.968Z,8.81
2018-12-20T10:55:18.084Z,8.79
2018-12-20T10:56:18.255Z,8.69
2018-12-20T10:57:18.451Z,8.63
2018-12-20T10:58:18.514Z,8.61
2018-12-20T10:59:18.759Z,8.64
2018-12-20T11:00:18.908Z,8.63
2018-12-20T11:01:19.086Z,8.61
2018-12-20T11:02:19.237Z,8.64
2018-12-20T11:03:19.385Z,8.64
2018-12-20T11:04:19.626Z,8.61
2018-12-20T11:05:19.727Z,8.63
2018-12-20T11:06:19.936Z,8.63
2018-12-20T11:07:20.860Z,8.63
2018-12-20T11:08:20.267Z,8.69
2018-12-20T11:09:20.579Z,8.69
2018-12-20T11:10:20.589Z,8.69
2018-12-20T11:11:20.807Z,8.79
2018-12-20T11:12:21.007Z,8.71
2018-12-20T11:13:21.114Z,8.69
2018-12-20T11:14:21.254Z,8.63
2018-12-20T11:15:21.413Z,8.71
2018-12-20T11:16:21.625Z,8.69
2018-12-20T11:17:22.430Z,8.64
2018-12-20T11:18:22.022Z,8.79
2018-12-20T11:19:22.172Z,8.69
2018-12-20T11:20:22.311Z,8.79
2018-12-20T11:21:22.472Z,8.76
2018-12-20T11:22:22.615Z,8.81
2018-12-20T11:23:22.719Z,8.85
2018-12-20T11:24:22.961Z,8.85
2018-12-20T11:25:23.097Z,8.92
2018-12-20T11:26:23.276Z,8.92
2018-12-20T11:27:25.415Z,8.95
2018-12-20T11:28:23.618Z,8.89
2018-12-20T11:29:23.754Z,8.79
2018-12-20T11:30:23.875Z,8.87
2018-12-20T11:31:24.023Z,8.69
2018-12-20T11:32:24.256Z,8.73
2018-12-20T11:33:24.448Z,8.69
2018-12-20T11:34:24.576Z,8.71
2018-12-20T11:35:24.788Z,8.66
2018-12-20T11:36:24.911Z,8.79
2018-12-20T11:37:25.046Z,8.74
2018-12-20T11:38:25.260Z,8.64
2018-12-20T11:39:25.441Z,8.67
2018-12-20T11:40:25.520Z,8.82
2018-12-20T11:41:25.778Z,8.78
2018-12-20T11:42:25.848Z,8.79
2018-12-20T11:43:26.053Z,8.82
2018-12-20T11:44:26.157Z,8.88
2018-12-20T11:45:26.290Z,8.78
2018-12-20T11:46:26.476Z,8.79
2018-12-20T11:47:26.710Z,8.81
2018-12-20T11:48:26.804Z,8.82
2018-12-20T11:49:27.005Z,8.84
2018-12-20T11:50:27.208Z,8.78
2018-12-20T11:51:27.292Z,8.78
2018-12-20T11:52:27.481Z,8.84
2018-12-20T11:53:27.649Z,8.89
2018-12-20T11:54:27.818Z,8.89
2018-12-20T11:55:27.949Z,8.87
2018-12-20T11:56:28.077Z,8.89
2018-12-20T11:57:28.405Z,8.87
2018-12-20T11:58:28.383Z,8.91
2018-12-20T11:59:28.529Z,8.88
2018-12-20T12:00:28.713Z,9.00
2018-12-20T12:01:28.909Z,8.95
2018-12-20T12:02:28.987Z,9.00
2018-12-20T12:03:29.181Z,8.89
2018-12-20T12:04:29.368Z,8.91
2018-12-20T12:05:29.522Z,8.99
2018-12-20T12:06:29.680Z,8.89
2018-12-20T12:07:29.875Z,8.79
2018-12-20T12:08:30.006Z,8.91
2018-12-20T12:09:30.204Z,8.81
2018-12-20T12:10:30.374Z,8.89
2018-12-20T12:11:30.486Z,8.89
2018-12-20T12:12:31.370Z,8.85
2018-12-20T12:13:30.766Z,8.79
2018-12-20T12:14:30.906Z,8.82
2018-12-20T12:15:31.179Z,8.74
2018-12-20T12:16:31.240Z,8.78
2018-12-20T12:17:31.458Z,8.71
2018-12-20T12:18:31.645Z,8.74
2018-12-20T12:19:31.746Z,8.82
2018-12-20T12:20:31.951Z,8.71
2018-12-20T12:21:32.090Z,8.69
2018-12-20T12:22:32.281Z,8.48
2018-12-20T12:23:32.453Z,8.55
2018-12-20T12:24:32.603Z,8.44
2018-12-20T12:25:32.730Z,8.48
2018-12-20T12:26:32.955Z,8.46
2018-12-20T12:27:33.164Z,8.51
2018-12-20T12:28:33.324Z,8.60
2018-12-20T12:29:33.447Z,8.52
2018-12-20T12:30:33.600Z,8.71
2018-12-20T12:31:33.744Z,8.61
2018-12-20T12:32:33.987Z,8.63
2018-12-20T12:33:34.121Z,8.78
2018-12-20T12:34:34.232Z,8.85
2018-12-20T12:35:34.466Z,8.84
2018-12-20T12:36:34.609Z,8.82
2018-12-20T12:37:34.739Z,8.95
2018-12-20T12:38:35.416Z,8.87
2018-12-20T12:39:35.011Z,8.88
2018-12-20T12:40:35.265Z,8.95
2018-12-20T12:41:35.342Z,8.76
2018-12-20T12:42:35.584Z,8.87
2018-12-20T12:43:35.683Z,8.92
2018-12-20T12:44:35.907Z,8.92
2018-12-20T12:45:36.037Z,8.88
2018-12-20T12:46:36.289Z,8.89
2018-12-20T12:47:36.374Z,8.84
2018-12-20T12:48:36.568Z,8.87
2018-12-20T12:49:36.804Z,8.92
2018-12-20T12:50:37.100Z,8.82
2018-12-20T12:51:37.496Z,8.74
2018-12-20T12:52:37.252Z,8.69
2018-12-20T12:53:37.393Z,8.71
2018-12-20T12:54:37.565Z,8.67
2018-12-20T12:55:37.776Z,8.74
2018-12-20T12:56:37.929Z,8.69
2018-12-20T12:57:38.115Z,8.61
2018-12-20T12:58:38.258Z,8.64
2018-12-20T12:59:38.445Z,8.53
2018-12-20T13:00:38.592Z,8.64
2018-12-20T13:01:38.684Z,8.56
2018-12-20T13:02:38.904Z,8.42
2018-12-20T13:03:39.033Z,8.51
2018-12-20T13:04:39.210Z,8.49
2018-12-20T13:05:39.398Z,8.56
2018-12-20T13:06:39.535Z,8.53
2018-12-20T13:07:39.737Z,8.64
2018-12-20T13:08:39.860Z,8.64
2018-12-20T13:09:40.075Z,8.61
2018-12-20T13:10:40.237Z,8.51
2018-12-20T13:11:40.451Z,8.53
2018-12-20T13:12:40.541Z,8.56
2018-12-20T13:13:40.685Z,8.60
2018-12-20T13:14:40.916Z,8.61
2018-12-20T13:15:41.070Z,8.63
2018-12-20T13:16:41.158Z,8.55
2018-12-20T13:17:41.359Z,8.55
2018-12-20T13:18:41.541Z,8.53
2018-12-20T13:19:41.676Z,8.52
2018-12-20T13:20:41.813Z,8.61
2018-12-20T13:21:41.979Z,8.64
2018-12-20T13:22:42.837Z,8.61
2018-12-20T13:23:42.424Z,8.70
2018-12-20T13:24:42.966Z,8.61
2018-12-20T13:25:42.680Z,8.49
2018-12-20T13:26:43.173Z,8.48
2018-12-20T13:27:43.168Z,8.46
2018-12-20T13:28:43.220Z,8.60
2018-12-20T13:29:43.314Z,8.53
2018-12-20T13:30:43.508Z,8.67
2018-12-20T13:31:43.667Z,8.63
2018-12-20T13:32:43.904Z,8.56
2018-12-20T13:33:45.023Z,8.45
2018-12-20T13:34:44.226Z,8.46
2018-12-20T13:35:44.403Z,8.46
2018-12-20T13:36:44.572Z,8.45
2018-12-20T13:37:44.740Z,8.45
2018-12-20T13:38:44.837Z,8.45
2018-12-20T13:39:45.071Z,8.51
2018-12-20T13:40:45.208Z,8.41
2018-12-20T13:41:45.399Z,8.42
2018-12-20T13:42:45.527Z,8.42
2018-12-20T13:43:45.722Z,8.36
2018-12-20T13:44:45.872Z,8.41
2018-12-20T13:45:46.121Z,8.44
2018-12-20T13:46:46.209Z,8.38
2018-12-20T13:47:46.469Z,8.45
2018-12-20T13:48:46.585Z,8.49
2018-12-20T13:49:46.769Z,8.45
2018-12-20T13:50:46.964Z,8.46
2018-12-20T13:51:47.157Z,8.42
2018-12-20T13:52:47.249Z,8.38
2018-12-20T13:53:47.452Z,8.41
2018-12-20T13:54:47.615Z,8.51
2018-12-20T13:55:47.767Z,8.53
2018-12-20T13:56:47.916Z,8.53
2018-12-20T13:57:48.090Z,8.45
2018-12-20T13:58:48.287Z,8.38
2018-12-20T13:59:48.451Z,8.36
2018-12-20T14:00:48.562Z,8.34
2018-12-20T14:01:48.801Z,8.49
2018-12-20T14:02:49.038Z,8.52
2018-12-20T14:03:49.024Z,8.51
2018-12-20T14:04:49.260Z,8.60
2018-12-20T14:05:49.467Z,8.60
2018-12-20T14:06:49.536Z,8.53
2018-12-20T14:07:49.705Z,8.49
2018-12-20T14:08:49.864Z,8.58
2018-12-20T14:09:50.165Z,8.61
2018-12-20T14:10:50.383Z,8.48
2018-12-20T14:11:50.408Z,8.53
2018-12-20T14:12:50.620Z,8.63
2018-12-20T14:13:50.761Z,8.63
2018-12-20T14:14:50.950Z,8.78
2018-12-20T14:15:51.181Z,8.70
2018-12-20T14:16:51.301Z,8.66
2018-12-20T14:17:51.394Z,8.78
2018-12-20T14:18:51.612Z,8.74
2018-12-20T14:19:51.689Z,8.69
2018-12-20T14:20:51.921Z,8.66
2018-12-20T14:21:52.029Z,8.69
2018-12-20T14:22:52.199Z,8.60
2018-12-20T14:23:52.384Z,8.58
2018-12-20T14:24:52.567Z,8.51
2018-12-20T14:25:52.687Z,8.61
2018-12-20T14:26:52.883Z,8.52
2018-12-20T14:27:53.026Z,8.64
2018-12-20T14:28:53.239Z,8.64
2018-12-20T14:29:53.407Z,8.63
2018-12-20T14:30:53.500Z,8.66
2018-12-20T14:31:53.696Z,8.67
2018-12-20T14:32:53.867Z,8.58
2018-12-20T14:33:53.956Z,8.67
2018-12-20T14:34:54.531Z,8.58
2018-12-20T14:35:54.377Z,8.45
2018-12-20T14:36:54.518Z,8.45
2018-12-20T14:37:54.635Z,8.45
2018-12-20T14:38:54.819Z,8.51
2018-12-20T14:39:54.979Z,8.51
2018-12-20T14:40:55.145Z,8.46
2018-12-20T14:41:55.275Z,8.52
2018-12-20T14:42:55.413Z,8.44
2018-12-20T14:43:55.589Z,8.41
2018-12-20T14:44:55.862Z,8.48
2018-12-20T14:45:55.989Z,8.45
2018-12-20T14:46:56.127Z,8.45
2018-12-20T14:47:56.297Z,8.44
2018-12-20T14:48:56.499Z,8.45
2018-12-20T14:49:56.786Z,8.45
2018-12-20T14:50:56.760Z,8.44
2018-12-20T14:51:56.848Z,8.48
2018-12-20T14:52:57.165Z,8.51
2018-12-20T14:53:57.290Z,8.55
2018-12-20T14:54:57.485Z,8.48
2018-12-20T14:55:57.613Z,8.49
2018-12-20T14:56:57.830Z,8.44
2018-12-20T14:57:58.513Z,8.36
2018-12-20T14:58:58.069Z,8.45
2018-12-20T14:59:58.348Z,8.36
2018-12-20T15:00:58.404Z,8.37
2018-12-20T15:01:58.578Z,8.28
2018-12-20T15:02:59.445Z,8.44
2018-12-20T15:03:59.036Z,8.36
2018-12-20T15:04:59.136Z,8.36
2018-12-20T15:05:59.272Z,8.44
2018-12-20T15:06:59.474Z,8.37
2018-12-20T15:07:59.686Z,8.38
2018-12-20T15:08:59.797Z,8.38
2018-12-20T15:10:00.001Z,8.44
2018-12-20T15:11:00.093Z,8.37
2018-12-20T15:12:00.265Z,8.48
2018-12-20T15:13:00.364Z,8.51
2018-12-20T15:14:00.495Z,8.44
2018-12-20T15:15:00.737Z,8.53
2018-12-20T15:16:00.922Z,8.33
2018-12-20T15:17:01.084Z,8.23
2018-12-20T15:18:01.249Z,8.19
2018-12-20T15:19:01.297Z,8.15
2018-12-20T15:20:01.577Z,8.19
2018-12-20T15:21:01.664Z,8.23
2018-12-20T15:22:01.830Z,8.27
2018-12-20T15:23:02.033Z,8.28
2018-12-20T15:24:02.100Z,8.23
2018-12-20T15:25:02.324Z,8.19
2018-12-20T15:26:02.583Z,8.16
2018-12-20T15:27:02.680Z,8.16
2018-12-20T15:28:02.848Z,8.13
2018-12-20T15:29:02.938Z,8.05
2018-12-20T15:30:03.142Z,8.10
2018-12-20T15:31:03.257Z,8.16
2018-12-20T15:32:03.443Z,8.09
2018-12-20T15:33:03.574Z,8.16
2018-12-20T15:34:03.781Z,8.08
2018-12-20T15:35:03.952Z,8.03
2018-12-20T15:36:04.011Z,8.05
2018-12-20T15:37:04.263Z,7.94
2018-12-20T15:38:04.421Z,8.05
2018-12-20T15:39:04.617Z,8.03
2018-12-20T15:40:04.756Z,8.09
2018-12-20T15:41:04.874Z,8.03
2018-12-20T15:42:05.045Z,8.13
2018-12-20T15:43:05.209Z,8.10
2018-12-20T15:44:05.369Z,8.16
2018-12-20T15:45:05.519Z,8.24
2018-12-20T15:46:05.712Z,8.28
2018-12-20T15:47:05.851Z,8.20
2018-12-20T15:48:06.043Z,8.36
2018-12-20T15:49:06.160Z,8.37
2018-12-20T15:50:06.349Z,8.31
2018-12-20T15:51:06.454Z,8.27
2018-12-20T15:52:06.665Z,8.24
2018-12-20T15:53:06.802Z,8.28
2018-12-20T15:54:06.926Z,8.27
2018-12-20T15:55:07.074Z,8.20
2018-12-20T15:56:07.264Z,8.18
2018-12-20T15:57:07.862Z,8.15
2018-12-20T15:58:07.608Z,8.23
2018-12-20T15:59:07.777Z,8.19
2018-12-20T16:00:07.949Z,8.20
2018-12-20T16:01:08.118Z,8.31
2018-12-20T16:02:08.303Z,8.24
2018-12-20T16:03:08.435Z,8.12
2018-12-20T16:04:08.618Z,8.13
2018-12-20T16:05:08.713Z,8.13
2018-12-20T16:06:08.931Z,8.16
2018-12-20T16:07:09.133Z,8.09
2018-12-20T16:08:09.290Z,8.12
2018-12-20T16:09:09.953Z,8.20
2018-12-20T16:10:09.623Z,8.10
2018-12-20T16:11:09.756Z,7.95
2018-12-20T16:12:09.899Z,8.08
2018-12-20T16:13:10.085Z,8.09
2018-12-20T16:14:10.214Z,8.10
2018-12-20T16:15:10.404Z,8.09
2018-12-20T16:16:10.553Z,8.08
2018-12-20T16:17:10.706Z,8.08
2018-12-20T16:18:10.823Z,8.10
2018-12-20T16:19:11.035Z,8.05
2018-12-20T16:20:11.224Z,8.12
2018-12-20T16:21:11.345Z,8.10
2018-12-20T16:22:11.501Z,8.19
2018-12-20T16:23:11.630Z,8.08
2018-12-20T16:24:11.831Z,8.12
2018-12-20T16:25:11.929Z,8.08
2018-12-20T16:26:12.193Z,8.08
2018-12-20T16:27:12.353Z,8.09
2018-12-20T16:28:12.432Z,8.08
2018-12-20T16:29:12.638Z,8.08
2018-12-20T16:30:12.783Z,8.10
2018-12-20T16:31:13.014Z,8.15
2018-12-20T16:32:13.196Z,8.19
2018-12-20T16:33:13.300Z,8.10
2018-12-20T16:34:13.509Z,8.10
2018-12-20T16:35:13.677Z,8.10
2018-12-20T16:36:13.785Z,8.15
2018-12-20T16:37:13.925Z,8.24
2018-12-20T16:38:14.106Z,8.15
2018-12-20T16:39:14.186Z,8.13
2018-12-20T16:40:14.397Z,8.18
2018-12-20T16:41:14.510Z,8.08
2018-12-20T16:42:14.742Z,8.09
2018-12-20T16:43:14.889Z,8.01
2018-12-20T16:44:14.988Z,8.01
2018-12-20T16:45:15.274Z,8.00
2018-12-20T16:46:15.340Z,8.10
2018-12-20T16:47:15.814Z,8.01
2018-12-20T16:48:16.467Z,8.09
2018-12-20T16:49:16.226Z,7.98
2018-12-20T16:50:16.751Z,7.97
2018-12-20T16:51:17.947Z,8.09
2018-12-20T16:52:18.479Z,7.95
2018-12-20T16:53:16.838Z,8.01
2018-12-20T16:54:16.738Z,7.91
2018-12-20T16:55:17.985Z,8.00
2018-12-20T16:56:17.984Z,7.97
2018-12-20T16:57:18.056Z,7.97
2018-12-20T16:58:17.578Z,7.91
2018-12-20T16:59:17.547Z,7.88
2018-12-20T17:00:17.672Z,7.79
2018-12-20T17:01:17.848Z,7.88
2018-12-20T17:02:18.030Z,7.72
2018-12-20T17:03:18.261Z,7.69
2018-12-20T17:04:18.405Z,7.80
2018-12-20T17:05:18.531Z,7.85
2018-12-20T17:06:18.741Z,7.85
2018-12-20T17:07:18.991Z,7.85
2018-12-20T17:08:19.104Z,7.85
2018-12-20T17:09:19.299Z,7.94
2018-12-20T17:10:19.503Z,7.94
2018-12-20T17:11:19.672Z,7.88
2018-12-20T17:12:19.783Z,7.91
2018-12-20T17:13:19.944Z,7.85
2018-12-20T17:14:20.182Z,7.77
2018-12-20T17:15:20.400Z,7.91
2018-12-20T17:16:20.555Z,8.00
2018-12-20T17:17:20.653Z,7.85
2018-12-20T17:18:20.862Z,7.95
2018-12-20T17:19:22.249Z,7.94
2018-12-20T17:20:21.132Z,7.82
2018-12-20T17:21:21.336Z,7.95
2018-12-20T17:22:21.438Z,7.98
2018-12-20T17:23:21.623Z,7.97